Portada
METAR-TAF:

METAR-TAF

Aeroports :

Conakry, Guinea

latitud: 09-34N, longitud: 013-37W, altitud: 26 m

Observació

L'informe es va fer fa 1 hora i 0 minuts, a les 11:00 UTC
Vent 8 kt del Sud-Oest
Temperatura 29°C
Humitat 79%
Pressió 1012 hPa
Visibilitat: 5000 m
Escasses núvols a una alçada de 1500 ft
calitja

METAR: GUCY 271100Z 22008KT 5000 HZ FEW015 29/25 Q1012 NOSIG

Hora: 12:00 (12:00 UTC)

Pronòstic

L'informe es va fer fa 1 hora i 0 minuts, a les 11:00 UTC
Pronòstic vàlid del 27 a les 12 UTC al 28 a les 18 UTC
Vent 6 kt del Oest
Visibilitat: 4000 m
Escasses núvols a una alçada de 1500 ft
calitja
Temporalment
l' 28 a les 05 UTC al 28 a les 09 UTC
Vent 2 kt amb direcció variable
Visibilitat: 2500 m
Núvols disperses a una alçada de 11000 ft
boirina

TAF: GUCY 271100Z 2712/2818 28006KT 4000 HZ FEW015 TEMPO 2805/2809 VRB02KT 2500 BR SCT110

Observacions i pronòstics meteorològics de més de 4000 aeroports (METAR i TAF).

Les estacions disponibles són els punts grocs i vermells al mapa.

Posi el ratolí al punt desitjat per veure el nom de l'estació.

Feu clic per veure les observacions i els pronòstics meteorològics.

Per canviar el mapa: feu clic els botons verds amb una creu de color negre per apropar; al botó verd amb un guió per allunyar la imatge; o en les fletxes verdes per a mapes adjacents.


METAR-TAF: